createdAt,value
2018-03-19T00:01:42.642Z,17.47
2018-03-19T00:04:10.109Z,17.33
2018-03-19T00:06:37.556Z,16.07
2018-03-19T00:09:05.038Z,15.77
2018-03-19T00:11:32.502Z,17.63
2018-03-19T00:13:59.972Z,18.10
2018-03-19T00:16:27.444Z,16.47
2018-03-19T00:18:54.919Z,17.43
2018-03-19T00:21:23.159Z,15.23
2018-03-19T00:23:50.617Z,16.33
2018-03-19T00:26:18.082Z,13.90
2018-03-19T00:28:45.555Z,17.10
2018-03-19T00:31:13.035Z,16.33
2018-03-19T00:33:41.258Z,16.40
2018-03-19T00:36:08.745Z,15.03
2018-03-19T00:38:36.202Z,14.33
2018-03-19T00:41:03.678Z,15.40
2018-03-19T00:43:31.892Z,16.30
2018-03-19T00:45:59.371Z,17.27
2018-03-19T00:48:26.822Z,16.80
2018-03-19T00:50:54.519Z,15.27
2018-03-19T00:53:22.737Z,16.50
2018-03-19T00:55:50.210Z,16.40
2018-03-19T00:58:17.669Z,16.20
2018-03-19T01:00:45.131Z,14.80
2018-03-19T01:03:12.597Z,13.67
2018-03-19T01:05:40.065Z,17.40
2018-03-19T01:08:08.314Z,15.53
2018-03-19T01:10:35.799Z,17.73
2018-03-19T01:13:04.023Z,15.43
2018-03-19T01:15:31.479Z,16.07
2018-03-19T01:17:58.963Z,16.10
2018-03-19T01:20:26.415Z,16.50
2018-03-19T01:22:53.886Z,16.70
2018-03-19T01:25:21.344Z,15.87
2018-03-19T01:27:48.819Z,16.47
2018-03-19T01:30:17.029Z,16.70
2018-03-19T01:32:44.506Z,17.10
2018-03-19T01:35:11.979Z,16.20
2018-03-19T01:37:39.459Z,16.10
2018-03-19T01:40:07.689Z,17.27
2018-03-19T01:42:35.132Z,17.70
2018-03-19T01:45:02.639Z,16.87
2018-03-19T01:47:30.844Z,15.87
2018-03-19T01:49:58.292Z,15.70
2018-03-19T01:52:37.712Z,18.20
2018-03-19T01:55:05.936Z,17.47
2018-03-19T01:57:33.407Z,15.87
2018-03-19T02:00:00.872Z,17.00
2018-03-19T02:02:28.347Z,16.00
2018-03-19T02:04:56.611Z,16.50
2018-03-19T02:07:24.064Z,16.63
2018-03-19T02:09:51.526Z,16.53
2018-03-19T02:12:18.999Z,18.13
2018-03-19T02:14:47.252Z,17.03
2018-03-19T02:17:14.704Z,14.47
2018-03-19T02:19:42.178Z,17.50
2018-03-19T02:22:10.386Z,16.87
2018-03-19T02:24:37.867Z,17.37
2018-03-19T02:27:05.340Z,17.30
2018-03-19T02:29:32.787Z,17.93
2018-03-19T02:32:00.245Z,16.73
2018-03-19T02:34:27.725Z,15.10
2018-03-19T02:36:55.940Z,17.47
2018-03-19T02:39:23.408Z,17.63
2018-03-19T02:41:50.886Z,17.40
2018-03-19T02:44:18.353Z,17.50
2018-03-19T02:46:45.820Z,18.00
2018-03-19T02:49:13.381Z,17.10
2018-03-19T02:51:40.821Z,16.70
2018-03-19T02:54:08.295Z,16.00
2018-03-19T02:56:35.768Z,14.10
2018-03-19T02:59:04.016Z,14.77
2018-03-19T03:01:31.476Z,15.07
2018-03-19T03:03:58.958Z,17.80
2018-03-19T03:06:27.187Z,16.57
2018-03-19T03:08:54.671Z,16.60
2018-03-19T03:11:22.154Z,16.17
2018-03-19T03:13:50.363Z,16.03
2018-03-19T03:16:17.856Z,17.10
2018-03-19T03:18:45.308Z,16.13
2018-03-19T03:21:12.786Z,16.60
2018-03-19T03:23:40.999Z,14.90
2018-03-19T03:26:08.474Z,15.67
2018-03-19T03:28:35.920Z,16.20
2018-03-19T03:31:03.393Z,15.33
2018-03-19T03:33:30.851Z,15.13
2018-03-19T03:35:58.348Z,18.57
2018-03-19T03:38:26.590Z,15.73
2018-03-19T03:40:54.042Z,15.73
2018-03-19T03:43:21.601Z,16.70
2018-03-19T03:45:49.750Z,16.70
2018-03-19T03:48:17.227Z,15.40
2018-03-19T03:50:44.680Z,15.97
2018-03-19T03:53:12.132Z,15.90
2018-03-19T03:55:39.611Z,15.83
2018-03-19T03:58:07.086Z,14.77
2018-03-19T04:00:35.318Z,16.83
2018-03-19T04:03:02.775Z,16.30
2018-03-19T04:05:30.340Z,17.03
2018-03-19T04:07:57.814Z,15.97
2018-03-19T04:10:25.288Z,16.37
2018-03-19T04:12:53.499Z,15.97
2018-03-19T04:15:20.980Z,16.33
2018-03-19T04:17:48.462Z,16.30
2018-03-19T04:20:15.916Z,17.20
2018-03-19T04:22:43.390Z,15.37
2018-03-19T04:25:10.883Z,16.80
2018-03-19T04:27:38.334Z,15.23
2018-03-19T04:30:05.792Z,15.77
2018-03-19T04:32:33.267Z,15.90
2018-03-19T04:35:00.716Z,14.03
2018-03-19T04:37:28.202Z,16.50
2018-03-19T04:39:55.646Z,16.50
2018-03-19T04:42:23.108Z,16.40
2018-03-19T04:44:50.554Z,15.97
2018-03-19T04:47:18.035Z,15.23
2018-03-19T04:49:45.511Z,17.00
2018-03-19T04:52:13.764Z,16.97
2018-03-19T04:54:41.224Z,15.87
2018-03-19T04:57:08.713Z,14.23
2018-03-19T04:59:36.168Z,17.30
2018-03-19T05:02:03.629Z,15.50
2018-03-19T05:04:31.157Z,17.27
2018-03-19T05:06:58.596Z,16.90
2018-03-19T05:09:26.070Z,16.30
2018-03-19T05:11:54.288Z,16.60
2018-03-19T05:14:21.775Z,15.43
2018-03-19T05:16:49.222Z,16.53
2018-03-19T05:19:16.700Z,13.80
2018-03-19T05:21:44.152Z,17.60
2018-03-19T05:24:11.624Z,17.03
2018-03-19T05:26:39.843Z,15.40
2018-03-19T05:29:07.300Z,17.30
2018-03-19T05:31:34.824Z,17.20
2018-03-19T05:34:03.032Z,17.83
2018-03-19T05:36:30.519Z,18.20
2018-03-19T05:38:57.958Z,17.03
2018-03-19T05:41:25.447Z,17.13
2018-03-19T05:43:52.900Z,16.50
2018-03-19T05:46:20.372Z,17.17
2018-03-19T05:48:48.591Z,16.97
2018-03-19T05:51:16.086Z,15.88
2018-03-19T05:53:43.576Z,17.73
2018-03-19T05:56:11.031Z,17.60
2018-03-19T05:58:39.305Z,17.93
2018-03-19T06:01:07.350Z,17.53
2018-03-19T06:03:34.842Z,18.90
2018-03-19T06:06:02.287Z,16.20
2018-03-19T06:08:30.733Z,17.15
2018-03-19T06:10:58.188Z,16.83
2018-03-19T06:13:25.685Z,16.62
2018-03-19T06:15:53.899Z,15.83
2018-03-19T06:18:21.433Z,17.00
2018-03-19T06:20:48.917Z,17.05
2018-03-19T06:23:16.371Z,17.50
2018-03-19T06:25:43.912Z,16.50
2018-03-19T06:28:11.372Z,15.97
2018-03-19T06:30:38.842Z,17.45
2018-03-19T06:33:06.300Z,16.17
2018-03-19T06:35:33.788Z,17.57
2018-03-19T06:38:01.255Z,17.53
2018-03-19T06:40:29.475Z,16.98
2018-03-19T06:42:56.964Z,16.62
2018-03-19T06:45:24.418Z,16.83
2018-03-19T06:47:51.896Z,16.90
2018-03-19T06:50:20.131Z,16.00
2018-03-19T06:55:29.847Z,16.70
2018-03-19T06:57:57.329Z,17.05
2018-03-19T07:00:24.779Z,16.53
2018-03-19T07:02:52.256Z,16.80
2018-03-19T07:05:19.711Z,17.50
2018-03-19T07:07:47.187Z,17.60
2018-03-19T07:10:14.652Z,18.60
2018-03-19T07:12:42.134Z,17.80
2018-03-19T07:15:10.347Z,17.50
2018-03-19T07:17:37.822Z,16.75
2018-03-19T07:20:05.291Z,17.55
2018-03-19T07:22:32.786Z,16.40
2018-03-19T07:25:00.999Z,18.25
2018-03-19T07:27:28.471Z,18.83
2018-03-19T07:29:55.948Z,18.70
2018-03-19T07:32:24.176Z,18.30
2018-03-19T07:34:51.656Z,18.03
2018-03-19T07:37:19.107Z,18.52
2018-03-19T07:39:46.595Z,17.37
2018-03-19T07:42:14.825Z,19.90
2018-03-19T07:44:42.300Z,19.33
2018-03-19T07:47:09.805Z,16.30
2018-03-19T07:49:37.296Z,19.27
2018-03-19T07:52:04.752Z,19.67
2018-03-19T07:54:32.252Z,19.25
2018-03-19T07:57:00.483Z,18.90
2018-03-19T07:59:27.948Z,19.00
2018-03-19T08:01:55.482Z,19.30
2018-03-19T08:04:22.923Z,19.73
2018-03-19T08:06:50.423Z,19.67
2018-03-19T08:09:17.868Z,19.90
2018-03-19T08:11:45.349Z,19.37
2018-03-19T08:14:12.799Z,18.10
2018-03-19T08:16:40.271Z,19.07
2018-03-19T08:19:07.727Z,18.47
2018-03-19T08:21:35.975Z,18.97
2018-03-19T08:24:03.461Z,20.03
2018-03-19T08:26:30.960Z,19.53
2018-03-19T08:28:58.458Z,19.40
2018-03-19T08:31:25.963Z,19.33
2018-03-19T08:33:53.405Z,19.87
2018-03-19T08:36:21.639Z,17.80
2018-03-19T08:38:49.087Z,18.97
2018-03-19T08:41:16.576Z,17.23
2018-03-19T08:43:44.021Z,19.13
2018-03-19T08:46:11.579Z,16.83
2018-03-19T08:48:39.039Z,19.47
2018-03-19T08:51:06.504Z,18.50
2018-03-19T08:53:33.955Z,20.27
2018-03-19T08:56:01.427Z,19.83
2018-03-19T08:58:29.679Z,18.90
2018-03-19T09:00:57.131Z,17.87
2018-03-19T09:03:24.595Z,19.33
2018-03-19T09:05:52.044Z,19.10
2018-03-19T09:08:19.542Z,19.70
2018-03-19T09:10:46.987Z,18.83
2018-03-19T09:13:15.223Z,16.73
2018-03-19T09:15:44.183Z,19.77
2018-03-19T09:18:11.679Z,17.80
2018-03-19T09:20:39.132Z,17.53
2018-03-19T09:23:06.608Z,15.30
2018-03-19T09:25:34.856Z,17.43
2018-03-19T09:28:02.352Z,18.73
2018-03-19T09:30:30.563Z,16.47
2018-03-19T09:32:58.044Z,18.63
2018-03-19T09:35:25.529Z,17.77
2018-03-19T09:37:52.976Z,17.17
2018-03-19T09:40:20.480Z,18.03
2018-03-19T09:42:47.919Z,17.83
2018-03-19T09:45:15.409Z,18.33
2018-03-19T09:47:42.872Z,18.70
2018-03-19T09:50:10.311Z,16.23
2018-03-19T09:52:37.818Z,17.90
2018-03-19T09:55:05.255Z,18.10
2018-03-19T09:57:32.757Z,17.00
2018-03-19T10:00:00.995Z,18.73
2018-03-19T10:02:28.476Z,18.23
2018-03-19T10:04:55.945Z,18.07
2018-03-19T10:07:23.411Z,15.63
2018-03-19T10:09:50.863Z,19.23
2018-03-19T10:12:18.383Z,18.97
2018-03-19T10:14:45.794Z,17.27
2018-03-19T10:17:13.272Z,16.37
2018-03-19T10:19:40.736Z,16.90
2018-03-19T10:22:08.193Z,15.97
2018-03-19T10:24:35.663Z,17.10
2018-03-19T10:27:04.632Z,16.87
2018-03-19T10:29:32.091Z,17.43
2018-03-19T10:31:59.547Z,17.40
2018-03-19T10:34:27.030Z,18.23
2018-03-19T10:36:54.480Z,17.17
2018-03-19T10:39:21.955Z,17.20
2018-03-19T10:41:50.193Z,15.63
2018-03-19T10:44:17.669Z,18.60
2018-03-19T10:46:45.887Z,16.50
2018-03-19T10:49:13.352Z,17.57
2018-03-19T10:51:40.832Z,17.20
2018-03-19T10:54:08.356Z,17.00
2018-03-19T10:56:35.839Z,18.20
2018-03-19T10:59:03.293Z,17.87
2018-03-19T11:01:36.595Z,18.47
2018-03-19T11:04:10.815Z,16.37
2018-03-19T11:06:43.976Z,17.43
2018-03-19T11:09:17.044Z,17.03
2018-03-19T11:11:44.556Z,17.40
2018-03-19T11:14:11.979Z,16.27
2018-03-19T11:16:39.434Z,16.27
2018-03-19T11:19:06.919Z,17.20
2018-03-19T11:21:34.375Z,16.93
2018-03-19T11:24:01.862Z,15.83
2018-03-19T11:26:30.076Z,17.13
2018-03-19T11:28:57.559Z,17.60
2018-03-19T11:31:25.059Z,16.37
2018-03-19T11:33:52.479Z,15.90
2018-03-19T11:36:19.932Z,18.50
2018-03-19T11:38:47.399Z,18.43
2018-03-19T11:41:14.872Z,20.40
2018-03-19T11:43:43.961Z,18.63
2018-03-19T11:46:11.429Z,17.90
2018-03-19T11:48:39.676Z,17.37
2018-03-19T11:51:07.166Z,15.57
2018-03-19T11:53:35.387Z,17.23
2018-03-19T11:56:02.879Z,16.20
2018-03-19T11:58:31.099Z,16.57
2018-03-19T12:00:58.591Z,16.97
2018-03-19T12:03:26.064Z,18.30
2018-03-19T12:05:53.551Z,18.17
2018-03-19T12:08:21.008Z,18.57
2018-03-19T12:10:48.473Z,17.97
2018-03-19T12:13:15.956Z,15.27
2018-03-19T12:15:43.442Z,16.63
2018-03-19T12:18:10.935Z,18.20
2018-03-19T12:20:38.499Z,18.37
2018-03-19T12:23:05.956Z,17.43
2018-03-19T12:25:33.502Z,17.50
2018-03-19T12:28:01.724Z,17.67
2018-03-19T12:30:29.183Z,18.83
2018-03-19T12:32:56.676Z,18.23
2018-03-19T12:35:24.882Z,18.27
2018-03-19T12:37:52.386Z,18.13
2018-03-19T12:40:19.840Z,20.00
2018-03-19T12:42:47.332Z,17.23
2018-03-19T12:45:15.547Z,17.67
2018-03-19T12:47:43.028Z,18.30
2018-03-19T12:50:10.509Z,17.20
2018-03-19T12:52:38.720Z,18.73
2018-03-19T12:55:06.187Z,15.37
2018-03-19T12:57:33.636Z,16.13
2018-03-19T13:00:01.135Z,18.90
2018-03-19T13:02:28.595Z,17.20
2018-03-19T13:04:56.076Z,16.30
2018-03-19T13:07:24.303Z,16.60
2018-03-19T13:09:51.780Z,15.67
2018-03-19T13:12:19.269Z,16.70
2018-03-19T13:14:47.468Z,16.90
2018-03-19T13:17:14.948Z,18.13
2018-03-19T13:19:42.401Z,16.83
2018-03-19T13:22:09.895Z,18.83
2018-03-19T13:24:38.165Z,16.43
2018-03-19T13:27:05.580Z,18.03
2018-03-19T13:29:33.068Z,18.97
2018-03-19T13:32:00.631Z,15.40
2018-03-19T13:34:28.121Z,16.43
2018-03-19T13:36:55.572Z,17.53
2018-03-19T13:39:23.078Z,16.00
2018-03-19T13:41:50.501Z,17.87
2018-03-19T13:44:18.001Z,16.30
2018-03-19T13:46:45.461Z,16.00
2018-03-19T13:49:12.907Z,16.60
2018-03-19T13:51:40.407Z,15.67
2018-03-19T13:54:08.628Z,17.00
2018-03-19T13:56:36.130Z,14.70
2018-03-19T13:59:04.403Z,15.73
2018-03-19T14:01:31.860Z,15.67
2018-03-19T14:04:00.087Z,15.80
2018-03-19T14:06:27.571Z,16.20
2018-03-19T14:08:55.036Z,16.17
2018-03-19T14:11:23.257Z,17.67
2018-03-19T14:13:50.769Z,17.77
2018-03-19T14:16:18.296Z,17.07
2018-03-19T14:18:45.775Z,18.17
2018-03-19T14:21:13.237Z,17.60
2018-03-19T14:23:41.458Z,16.30
2018-03-19T14:26:08.935Z,17.90
2018-03-19T14:28:36.382Z,18.80
2018-03-19T14:31:03.862Z,18.73
2018-03-19T14:33:31.307Z,18.20
2018-03-19T14:35:58.791Z,18.13
2018-03-19T14:38:26.271Z,17.60
2018-03-19T14:40:53.787Z,19.20
2018-03-19T14:43:21.275Z,18.40
2018-03-19T14:45:49.505Z,20.23
2018-03-19T14:48:17.035Z,20.00
2018-03-19T14:50:44.546Z,17.90
2018-03-19T14:53:11.985Z,18.43
2018-03-19T14:55:39.475Z,18.00
2018-03-19T14:58:07.755Z,19.03
2018-03-19T15:00:35.996Z,16.20
2018-03-19T15:03:03.451Z,16.37
2018-03-19T15:05:30.932Z,17.70
2018-03-19T15:07:59.175Z,18.40
2018-03-19T15:10:26.664Z,20.03
2018-03-19T15:12:54.120Z,18.77
2018-03-19T15:15:22.342Z,20.90
2018-03-19T15:17:49.883Z,17.93
2018-03-19T15:20:17.324Z,19.43
2018-03-19T15:22:44.800Z,19.00
2018-03-19T15:25:12.259Z,19.00
2018-03-19T15:27:39.739Z,20.53
2018-03-19T15:30:07.207Z,20.40
2018-03-19T15:32:34.700Z,21.27
2018-03-19T15:35:02.943Z,20.87
2018-03-19T15:37:30.407Z,20.83
2018-03-19T15:39:57.901Z,19.67
2018-03-19T15:42:25.359Z,17.37
2018-03-19T15:44:52.854Z,17.77
2018-03-19T15:47:20.318Z,20.13
2018-03-19T15:49:47.807Z,20.63
2018-03-19T15:52:16.040Z,19.03
2018-03-19T15:54:43.531Z,20.27
2018-03-19T15:57:10.984Z,18.73
2018-03-19T15:59:38.461Z,19.53
2018-03-19T16:02:06.681Z,18.87
2018-03-19T16:04:34.166Z,19.63
2018-03-19T16:07:01.608Z,22.00
2018-03-19T16:09:29.495Z,18.80
2018-03-19T16:11:56.950Z,19.37
2018-03-19T16:14:24.442Z,18.97
2018-03-19T16:16:51.922Z,19.10
2018-03-19T16:19:19.400Z,20.77
2018-03-19T16:21:46.901Z,20.23
2018-03-19T16:24:15.127Z,19.07
2018-03-19T16:26:42.614Z,20.43
2018-03-19T16:29:10.059Z,19.10
2018-03-19T16:31:37.577Z,20.07
2018-03-19T16:34:05.036Z,17.30
2018-03-19T16:36:32.521Z,18.40
2018-03-19T16:38:59.980Z,19.27
2018-03-19T16:41:27.444Z,17.73
2018-03-19T16:43:54.953Z,17.90
2018-03-19T16:46:22.409Z,18.87
2018-03-19T16:48:49.895Z,17.60
2018-03-19T16:51:17.341Z,16.40
2018-03-19T16:53:44.833Z,17.90
2018-03-19T16:56:12.275Z,17.10
2018-03-19T16:58:39.763Z,17.03
2018-03-19T17:01:08.002Z,16.67
2018-03-19T17:03:35.490Z,19.57
2018-03-19T17:06:03.719Z,16.07
2018-03-19T17:08:31.200Z,17.00
2018-03-19T17:10:58.683Z,16.93
2018-03-19T17:13:26.911Z,18.60
2018-03-19T17:15:54.393Z,17.07
2018-03-19T17:18:21.885Z,17.00
2018-03-19T17:20:50.107Z,18.07
2018-03-19T17:23:17.579Z,17.90
2018-03-19T17:25:45.071Z,19.20
2018-03-19T17:28:12.532Z,18.43
2018-03-19T17:30:40.095Z,17.50
2018-03-19T17:33:07.501Z,17.80
2018-03-19T17:35:34.959Z,19.93
2018-03-19T17:38:02.469Z,17.20
2018-03-19T17:40:29.985Z,17.80
2018-03-19T17:42:58.214Z,17.77
2018-03-19T17:45:25.695Z,17.17
2018-03-19T17:47:53.221Z,18.17
2018-03-19T17:50:20.656Z,17.73
2018-03-19T17:52:48.155Z,17.80
2018-03-19T17:55:15.621Z,18.10
2018-03-19T17:57:43.161Z,16.50
2018-03-19T18:00:10.664Z,18.20
2018-03-19T18:02:38.925Z,17.30
2018-03-19T18:05:06.399Z,19.20
2018-03-19T18:07:34.636Z,18.13
2018-03-19T18:10:02.096Z,17.40
2018-03-19T18:12:29.608Z,18.03
2018-03-19T18:14:57.152Z,16.70
2018-03-19T18:17:25.384Z,17.70
2018-03-19T18:19:52.867Z,16.40
2018-03-19T18:22:21.085Z,16.93
2018-03-19T18:24:48.596Z,17.17
2018-03-19T18:27:16.828Z,17.20
2018-03-19T18:29:44.322Z,18.10
2018-03-19T18:32:11.825Z,15.23
2018-03-19T18:34:39.326Z,16.27
2018-03-19T18:37:06.807Z,15.40
2018-03-19T18:39:35.086Z,18.33
2018-03-19T18:42:02.565Z,16.17
2018-03-19T18:44:30.085Z,16.23
2018-03-19T18:46:57.559Z,16.30
2018-03-19T18:49:25.807Z,14.63
2018-03-19T18:51:53.291Z,14.53
2018-03-19T18:54:21.577Z,12.20
2018-03-19T18:56:49.929Z,13.13
2018-03-19T18:59:18.183Z,14.13
2018-03-19T19:01:45.661Z,16.23
2018-03-19T19:04:13.165Z,16.10
2018-03-19T19:06:40.643Z,13.97
2018-03-19T19:09:08.131Z,14.10
2018-03-19T19:11:36.376Z,16.03
2018-03-19T19:14:03.839Z,14.70
2018-03-19T19:16:31.324Z,15.23
2018-03-19T19:18:59.595Z,15.30
2018-03-19T19:21:27.875Z,12.80
2018-03-19T19:23:56.174Z,15.97
2018-03-19T19:26:24.525Z,15.83
2018-03-19T19:28:52.017Z,14.60
2018-03-19T19:31:19.536Z,14.07
2018-03-19T19:33:47.023Z,14.50
2018-03-19T19:36:14.524Z,14.50
2018-03-19T19:38:42.054Z,13.27
2018-03-19T19:41:09.572Z,15.07
2018-03-19T19:43:37.810Z,15.00
2018-03-19T19:46:05.312Z,12.67
2018-03-19T19:48:33.569Z,13.47
2018-03-19T19:51:01.063Z,15.93
2018-03-19T19:53:28.568Z,14.00
2018-03-19T19:55:56.349Z,15.10
2018-03-19T19:58:23.873Z,12.90
2018-03-19T20:00:51.364Z,14.10
2018-03-19T20:03:18.858Z,15.17
2018-03-19T20:05:46.313Z,13.70
2018-03-19T20:08:13.805Z,16.10
2018-03-19T20:10:41.277Z,18.00
2018-03-19T20:13:08.768Z,16.77
2018-03-19T20:15:37.027Z,17.70
2018-03-19T20:18:05.287Z,17.17
2018-03-19T20:20:32.774Z,14.97
2018-03-19T20:23:01.018Z,14.67
2018-03-19T20:25:28.508Z,14.93
2018-03-19T20:27:56.747Z,14.43
2018-03-19T20:30:24.350Z,14.13
2018-03-19T20:32:51.859Z,16.07
2018-03-19T20:35:19.317Z,15.50
2018-03-19T20:37:46.800Z,14.43
2018-03-19T20:40:15.071Z,15.20
2018-03-19T20:42:42.535Z,16.03
2018-03-19T20:45:10.800Z,16.47
2018-03-19T20:47:39.044Z,16.67
2018-03-19T20:50:07.467Z,15.90
2018-03-19T20:52:34.986Z,14.60
2018-03-19T20:55:02.465Z,15.30
2018-03-19T20:57:30.702Z,15.67
2018-03-19T20:59:58.192Z,14.53
2018-03-19T21:02:26.469Z,16.10
2018-03-19T21:04:54.729Z,14.80
2018-03-19T21:07:22.215Z,14.77
2018-03-19T21:09:50.436Z,15.20
2018-03-19T21:12:17.958Z,15.47
2018-03-19T21:14:45.432Z,15.40
2018-03-19T21:17:12.917Z,15.57
2018-03-19T21:19:40.396Z,16.17
2018-03-19T21:22:07.896Z,16.43
2018-03-19T21:24:35.361Z,16.47
2018-03-19T21:27:02.859Z,15.60
2018-03-19T21:29:30.392Z,17.03
2018-03-19T21:31:57.872Z,17.67
2018-03-19T21:34:25.361Z,18.07
2018-03-19T21:36:53.590Z,17.27
2018-03-19T21:39:21.120Z,17.53
2018-03-19T21:41:48.580Z,18.40
2018-03-19T21:44:16.089Z,19.30
2018-03-19T21:46:43.540Z,16.97
2018-03-19T21:49:11.025Z,17.50
2018-03-19T21:51:38.506Z,19.67
2018-03-19T21:54:05.956Z,19.10
2018-03-19T21:56:33.463Z,18.47
2018-03-19T21:59:00.921Z,18.10
2018-03-19T22:01:28.433Z,17.67
2018-03-19T22:03:55.892Z,19.20
2018-03-19T22:06:23.396Z,17.53
2018-03-19T22:08:51.616Z,20.30
2018-03-19T22:11:19.091Z,20.40
2018-03-19T22:13:46.567Z,19.10
2018-03-19T22:16:14.023Z,20.73
2018-03-19T22:18:41.512Z,20.93
2018-03-19T22:21:09.783Z,20.70
2018-03-19T22:23:38.023Z,19.00
2018-03-19T22:26:05.477Z,17.70
2018-03-19T22:28:32.952Z,19.47
2018-03-19T22:31:00.417Z,18.87
2018-03-19T22:33:28.676Z,18.80
2018-03-19T22:35:56.171Z,18.70
2018-03-19T22:38:23.632Z,19.80
2018-03-19T22:40:51.132Z,18.93
2018-03-19T22:43:18.608Z,19.43
2018-03-19T22:45:46.071Z,19.43
2018-03-19T22:48:13.524Z,17.93
2018-03-19T22:50:41.000Z,20.17
2018-03-19T22:53:09.215Z,18.70
2018-03-19T22:55:36.693Z,19.67
2018-03-19T22:58:04.169Z,16.80
2018-03-19T23:00:31.639Z,16.37
2018-03-19T23:02:59.908Z,17.43
2018-03-19T23:05:27.360Z,18.00
2018-03-19T23:07:54.825Z,18.97
2018-03-19T23:10:22.308Z,17.40
2018-03-19T23:12:49.768Z,16.63
2018-03-19T23:15:17.243Z,16.30
2018-03-19T23:17:44.721Z,16.63
2018-03-19T23:20:12.191Z,16.37
2018-03-19T23:22:39.656Z,15.77
2018-03-19T23:25:08.628Z,16.17
2018-03-19T23:27:36.104Z,14.50
2018-03-19T23:30:03.548Z,16.63
2018-03-19T23:32:31.023Z,16.80
2018-03-19T23:34:59.264Z,16.50
2018-03-19T23:37:26.756Z,16.63
2018-03-19T23:39:54.203Z,18.97
2018-03-19T23:42:21.681Z,16.97
2018-03-19T23:44:49.908Z,16.30
2018-03-19T23:47:17.402Z,15.50
2018-03-19T23:49:45.641Z,16.47
2018-03-19T23:52:13.088Z,17.27
2018-03-19T23:54:40.555Z,16.63
2018-03-19T23:57:08.026Z,16.30
2018-03-19T23:59:35.498Z,16.33
